Time;durP1;ratioP1;P1;durP2;ratioP2;P2;SDS_P1;SDS_P2;PMS_P1;PMS_P2;Temp;Humidity;BMP_temperature;BMP_pressure;BME280_temperature;BME280_humidity;BME280_pressure;Samples;Min_cycle;Max_cycle;Signal;HPM_P1;HPM_P2
2021/05/21 00:00:48;;;;;;;0.50;0.45;;;;;;;24.51;42.11;94625.31;4952607;29;20488;-72
2021/05/21 00:03:14;;;;;;;0.80;0.50;;;;;;;24.30;41.76;94599.16;4957113;28;20055;-73
2021/05/21 00:05:39;;;;;;;1.05;0.50;;;;;;;24.33;41.84;94631.63;4971637;28;20034;-73
2021/05/21 00:08:08;;;;;;;0.60;0.40;;;;;;;24.49;41.91;94633.31;4971559;28;20026;-72
2021/05/21 00:10:33;;;;;;;0.63;0.50;;;;;;;24.45;41.90;94622.72;4954668;28;20022;-73
2021/05/21 00:12:59;;;;;;;0.43;0.43;;;;;;;24.22;41.86;94592.88;4971300;28;20062;-73
2021/05/21 00:15:24;;;;;;;0.70;0.40;;;;;;;24.44;41.78;94620.53;4954537;28;20035;-73
2021/05/21 00:17:50;;;;;;;0.50;0.40;;;;;;;24.45;42.09;94621.97;4971649;28;20097;-73
2021/05/21 00:20:15;;;;;;;0.65;0.55;;;;;;;24.42;41.79;94628.47;4971564;28;20039;-73
2021/05/21 00:22:41;;;;;;;0.50;0.50;;;;;;;24.43;41.66;94629.97;4971171;28;20090;-73
2021/05/21 00:25:07;;;;;;;1.20;0.50;;;;;;;24.39;41.82;94624.06;4970387;28;20499;-73
2021/05/21 00:27:33;;;;;;;0.68;0.40;;;;;;;24.29;41.78;94608.59;4971442;28;20470;-73
2021/05/21 00:29:58;;;;;;;0.55;0.40;;;;;;;24.26;41.83;94621.31;4971318;28;20037;-72
2021/05/21 00:32:23;;;;;;;0.73;0.43;;;;;;;24.38;42.37;94644.44;4953666;28;20038;-72
2021/05/21 00:34:49;;;;;;;0.90;0.60;;;;;;;24.28;42.00;94639.91;4971491;28;20031;-73
2021/05/21 00:37:14;;;;;;;0.60;0.50;;;;;;;24.38;42.27;94644.44;4954016;28;20082;-74
2021/05/21 00:39:40;;;;;;;0.80;0.40;;;;;;;24.24;42.13;94629.28;4970956;28;20057;-73
2021/05/21 00:42:09;;;;;;;1.00;0.50;;;;;;;24.34;41.97;94654.94;4970863;28;20418;-73
2021/05/21 00:44:34;;;;;;;0.50;0.50;;;;;;;24.33;42.08;94650.72;4971154;28;20483;-73
2021/05/21 00:47:00;;;;;;;0.70;0.50;;;;;;;24.33;41.89;94653.47;4953615;28;20026;-73
2021/05/21 00:49:25;;;;;;;0.60;0.50;;;;;;;24.24;42.53;94640.19;4953840;28;20022;-74
2021/05/21 00:51:51;;;;;;;0.60;0.50;;;;;;;24.34;42.36;94663.13;4953549;28;20030;-72
2021/05/21 00:54:17;;;;;;;0.75;0.55;;;;;;;24.18;42.13;94650.47;4954181;28;20035;-73
2021/05/21 00:56:42;;;;;;;0.50;0.40;;;;;;;24.27;42.10;94671.91;4970767;28;20085;-73
2021/05/21 00:59:08;;;;;;;0.73;0.40;;;;;;;24.30;42.19;94670.84;4953838;28;20479;-73
2021/05/21 01:01:33;;;;;;;0.50;0.43;;;;;;;24.26;41.82;94675.91;4921290;28;20030;-73
2021/05/21 01:03:59;;;;;;;0.52;0.35;;;;;;;24.28;41.95;94673.38;4953584;28;20514;-73
2021/05/21 01:06:24;;;;;;;0.70;0.45;;;;;;;24.27;42.10;94677.34;4970569;28;20019;-73
2021/05/21 01:08:50;;;;;;;0.93;0.47;;;;;;;24.27;42.06;94682.81;4970714;28;20387;-72
2021/05/21 01:11:15;;;;;;;0.80;0.60;;;;;;;24.13;42.21;94662.22;4970485;28;20203;-73
2021/05/21 01:13:41;;;;;;;0.60;0.55;;;;;;;24.24;42.42;94694.78;4952931;28;20188;-73
2021/05/21 01:16:06;;;;;;;1.02;0.40;;;;;;;24.22;41.98;94686.38;4953319;28;20019;-72
2021/05/21 01:18:32;;;;;;;0.70;0.40;;;;;;;24.23;42.30;94687.84;4969265;28;20023;-73
2021/05/21 01:20:57;;;;;;;0.68;0.60;;;;;;;24.22;42.18;94697.28;4970293;28;20038;-73
2021/05/21 01:23:23;;;;;;;0.57;0.45;;;;;;;24.16;42.47;94683.00;4968960;28;20051;-72
2021/05/21 01:25:48;;;;;;;0.45;0.40;;;;;;;24.18;42.02;94683.22;4952915;28;20058;-72
2021/05/21 01:28:15;;;;;;;0.68;0.57;;;;;;;24.21;42.06;94695.81;4970607;28;20027;-73
2021/05/21 01:30:41;;;;;;;0.60;0.47;;;;;;;24.04;42.01;94665.34;4953414;28;20030;-73
2021/05/21 01:33:08;;;;;;;0.68;0.55;;;;;;;24.16;42.28;94688.47;4952670;28;20414;-73
2021/05/21 01:35:33;;;;;;;1.27;0.60;;;;;;;24.15;42.27;94692.44;4970161;28;20027;-73
2021/05/21 01:37:59;;;;;;;0.63;0.50;;;;;;;24.09;41.94;94682.88;4952818;28;20042;-73
2021/05/21 01:40:24;;;;;;;0.50;0.50;;;;;;;24.19;42.58;94698.34;4969787;28;20029;-72
2021/05/21 01:42:50;;;;;;;1.40;0.73;;;;;;;24.16;42.40;94693.94;4952594;28;20042;-73
2021/05/21 01:45:15;;;;;;;0.60;0.50;;;;;;;24.14;42.23;94701.91;4953046;28;20402;-72
2021/05/21 01:47:41;;;;;;;0.70;0.50;;;;;;;24.16;42.57;94699.38;4969932;28;20457;-73
2021/05/21 01:50:07;;;;;;;1.00;0.60;;;;;;;24.16;42.11;94715.75;4969003;28;20085;-72
2021/05/21 01:52:33;;;;;;;0.60;0.50;;;;;;;24.12;42.49;94704.41;4953141;28;20030;-72
2021/05/21 01:54:58;;;;;;;0.73;0.50;;;;;;;24.02;42.31;94695.16;4970293;28;20026;-72
2021/05/21 01:57:24;;;;;;;0.77;0.70;;;;;;;24.13;42.45;94694.25;4952695;28;20438;-72
2021/05/21 01:59:49;;;;;;;0.80;0.60;;;;;;;24.00;42.42;94692.19;4970339;28;20023;-72
2021/05/21 02:02:15;;;;;;;0.75;0.50;;;;;;;24.12;42.07;94709.84;4975420;28;20023;-68
2021/05/21 02:04:41;;;;;;;0.70;0.52;;;;;;;24.07;42.21;94696.31;4977283;28;20092;-68
2021/05/21 02:07:09;;;;;;;0.68;0.50;;;;;;;24.08;42.51;94704.00;4977476;28;20109;-68
2021/05/21 02:09:43;;;;;;;0.75;0.55;;;;;;;24.09;42.33;94705.44;4976327;28;20113;-69
2021/05/21 02:12:09;;;;;;;0.60;0.60;;;;;;;24.05;42.76;94694.13;4976923;28;20494;-69
2021/05/21 02:14:35;;;;;;;0.70;0.50;;;;;;;24.08;42.69;94693.06;4971276;28;20034;-71
2021/05/21 02:17:00;;;;;;;0.60;0.60;;;;;;;24.03;42.50;94685.69;4970322;28;20026;-72
2021/05/21 02:19:25;;;;;;;0.73;0.60;;;;;;;24.07;42.36;94691.59;4970407;28;20030;-73
2021/05/21 02:21:51;;;;;;;0.60;0.60;;;;;;;24.04;42.43;94698.09;4970178;28;20495;-71
2021/05/21 02:24:16;;;;;;;0.70;0.60;;;;;;;24.05;42.57;94683.22;4937574;28;20026;-72
2021/05/21 02:26:42;;;;;;;0.75;0.57;;;;;;;23.90;42.50;94669.31;4970238;28;20070;-72
2021/05/21 02:29:09;;;;;;;0.60;0.60;;;;;;;24.06;42.59;94689.38;4969804;28;20019;-72
2021/05/21 02:31:34;;;;;;;0.70;0.60;;;;;;;24.07;42.72;94680.69;4969533;28;20015;-73
2021/05/21 02:34:00;;;;;;;0.60;0.47;;;;;;;24.06;42.43;94689.38;4969559;28;20030;-72
2021/05/21 02:36:25;;;;;;;0.77;0.60;;;;;;;24.03;42.68;94691.16;4951869;28;20501;-73
2021/05/21 02:38:51;;;;;;;0.70;0.63;;;;;;;24.03;43.05;94693.88;4969404;28;20031;-72
2021/05/21 02:41:16;;;;;;;0.88;0.50;;;;;;;24.03;42.23;94691.16;4969414;28;20077;-72
2021/05/21 02:43:42;;;;;;;0.98;0.60;;;;;;;24.03;42.35;94701.34;4968942;28;20403;-72
2021/05/21 02:46:07;;;;;;;0.80;0.70;;;;;;;23.85;42.68;94676.84;4969411;28;20498;-73
2021/05/21 02:48:32;;;;;;;0.93;0.60;;;;;;;24.00;42.55;94697.66;4968635;28;20093;-73
2021/05/21 02:50:58;;;;;;;0.65;0.52;;;;;;;24.01;42.49;94704.59;4970225;28;20019;-73
2021/05/21 02:53:23;;;;;;;0.70;0.65;;;;;;;23.86;42.30;94697.44;4972825;28;20029;-72
2021/05/21 02:55:49;;;;;;;0.60;0.50;;;;;;;23.98;42.38;94711.09;4955596;28;20062;-72
2021/05/21 02:58:14;;;;;;;0.75;0.60;;;;;;;24.00;42.61;94702.38;4965499;28;20035;-73
2021/05/21 03:00:40;;;;;;;0.65;0.50;;;;;;;23.87;42.77;94694.91;4958533;28;20034;-71
2021/05/21 03:03:05;;;;;;;0.65;0.60;;;;;;;23.90;42.72;94704.78;4971572;28;20105;-73
2021/05/21 03:05:31;;;;;;;0.95;0.68;;;;;;;24.04;42.70;94719.19;4952100;29;20023;-73
2021/05/21 03:07:57;;;;;;;1.90;0.70;;;;;;;24.05;42.89;94726.84;4964585;28;20019;-72
2021/05/21 03:10:26;;;;;;;1.08;0.60;;;;;;;24.07;42.99;94729.78;4963869;28;20038;-73
2021/05/21 03:12:51;;;;;;;0.60;0.50;;;;;;;24.04;42.85;94725.38;4962661;28;20026;-73
2021/05/21 03:15:17;;;;;;;1.00;0.70;;;;;;;23.93;43.25;94714.66;4981091;28;20029;-73
2021/05/21 03:17:42;;;;;;;0.70;0.60;;;;;;;24.02;42.75;94733.34;4916498;28;20574;-73
2021/05/21 03:20:09;;;;;;;0.90;0.50;;;;;;;24.11;42.95;94735.69;4942371;28;20096;-73
2021/05/21 03:22:34;;;;;;;1.00;0.75;;;;;;;24.17;42.79;94739.06;4966228;28;20115;-72
2021/05/21 03:25:03;;;;;;;0.73;0.50;;;;;;;24.18;42.93;94728.88;4968639;28;20043;-72
2021/05/21 03:27:31;;;;;;;1.25;0.70;;;;;;;24.25;42.75;94723.53;4959948;28;20158;-74
2021/05/21 03:29:58;;;;;;;1.60;0.70;;;;;;;24.39;42.23;94733.25;4972512;28;20034;-72
2021/05/21 03:32:23;;;;;;;0.60;0.60;;;;;;;24.44;42.33;94724.97;4935772;28;20152;-72
2021/05/21 03:34:49;;;;;;;0.80;0.60;;;;;;;24.47;42.02;94723.19;4964243;28;20514;-73
2021/05/21 03:37:14;;;;;;;0.70;0.63;;;;;;;24.53;42.43;94715.66;4961851;28;20031;-72
2021/05/21 03:39:39;;;;;;;0.90;0.70;;;;;;;24.77;41.54;94731.81;4938845;28;20035;-72
2021/05/21 03:42:06;;;;;;;0.80;0.50;;;;;;;24.87;41.51;94739.81;4954061;28;20430;-72
2021/05/21 03:44:31;;;;;;;0.60;0.50;;;;;;;24.93;41.94;94736.97;4955798;28;20118;-70
2021/05/21 03:46:58;;;;;;;0.63;0.55;;;;;;;25.02;41.10;94734.59;4956537;28;20026;-72
2021/05/21 03:49:23;;;;;;;0.98;0.85;;;;;;;25.11;41.29;94731.44;4970800;28;20034;-71
2021/05/21 03:51:49;;;;;;;0.70;0.60;;;;;;;25.25;41.40;94730.13;4972189;28;20458;-72
2021/05/21 03:54:15;;;;;;;0.75;0.65;;;;;;;25.14;40.98;94707.75;4972349;28;20085;-72
2021/05/21 03:56:40;;;;;;;1.13;0.68;;;;;;;25.30;40.41;94721.09;4935161;28;20031;-72
2021/05/21 03:59:06;;;;;;;1.05;0.90;;;;;;;25.49;40.77;94727.16;4951358;29;20082;-72
2021/05/21 04:01:32;;;;;;;0.75;0.50;;;;;;;25.57;40.68;94739.63;4947389;28;20078;-72
2021/05/21 04:03:57;;;;;;;0.55;0.40;;;;;;;25.63;40.15;94748.44;4958552;28;20514;-72
2021/05/21 04:06:23;;;;;;;0.70;0.60;;;;;;;25.73;40.36;94756.97;4945482;28;20114;-72
2021/05/21 04:08:48;;;;;;;0.45;0.40;;;;;;;25.79;40.15;94763.06;4971397;28;20031;-75
2021/05/21 04:11:14;;;;;;;0.70;0.50;;;;;;;25.85;39.77;94759.66;4939709;28;20491;-74
2021/05/21 04:13:40;;;;;;;0.80;0.60;;;;;;;25.87;40.06;94759.88;4956176;28;20290;-72
2021/05/21 04:16:06;;;;;;;1.25;0.50;;;;;;;25.95;39.66;94768.91;4928966;29;20031;-74
2021/05/21 04:18:31;;;;;;;1.27;0.47;;;;;;;25.88;39.57;94764.06;4968619;28;20466;-75
2021/05/21 04:20:57;;;;;;;0.50;0.40;;;;;;;26.03;39.26;94766.97;4954709;28;20018;-74
2021/05/21 04:23:22;;;;;;;0.80;0.60;;;;;;;26.04;39.42;94776.66;4962431;28;20134;-74
2021/05/21 04:25:49;;;;;;;0.70;0.50;;;;;;;25.95;39.97;94725.13;4954838;28;20031;-73
2021/05/21 04:28:15;;;;;;;0.73;0.50;;;;;;;26.09;38.96;94739.47;4970908;28;20111;-75
2021/05/21 04:30:40;;;;;;;0.82;0.50;;;;;;;26.13;39.28;94746.09;4970391;28;20066;-73
2021/05/21 04:33:06;;;;;;;0.80;0.60;;;;;;;26.20;39.08;94753.63;4953932;28;20050;-75
2021/05/21 04:35:31;;;;;;;1.08;0.60;;;;;;;26.35;39.29;94772.94;4972686;28;20023;-72
2021/05/21 04:37:56;;;;;;;0.95;0.50;;;;;;;26.34;39.41;94771.50;4971619;28;20085;-71
2021/05/21 04:40:22;;;;;;;0.98;0.73;;;;;;;26.41;39.01;94770.81;4971271;28;20030;-74
2021/05/21 04:42:47;;;;;;;0.70;0.57;;;;;;;26.45;39.12;94776.69;4970403;28;20034;-72
2021/05/21 04:45:14;;;;;;;0.40;0.40;;;;;;;26.48;38.74;94786.59;4972099;28;20489;-74
2021/05/21 04:47:39;;;;;;;0.68;0.50;;;;;;;26.49;39.40;94788.06;4975560;28;20031;-74
2021/05/21 04:50:05;;;;;;;1.30;0.57;;;;;;;26.51;38.93;94796.47;4976436;28;20035;-74
2021/05/21 04:52:31;;;;;;;1.48;0.70;;;;;;;26.50;38.97;94789.50;4960153;28;20565;-74
2021/05/21 04:54:56;;;;;;;0.90;0.60;;;;;;;26.60;39.05;94791.25;4965788;28;20015;-71
2021/05/21 04:57:22;;;;;;;0.55;0.52;;;;;;;26.61;38.39;94794.72;4962119;28;20023;-72
2021/05/21 04:59:47;;;;;;;1.80;0.52;;;;;;;26.58;38.91;94798.53;4962365;28;20027;-73
2021/05/21 05:02:12;;;;;;;0.80;0.50;;;;;;;26.64;38.78;94821.06;4950706;28;20018;-72
2021/05/21 05:04:38;;;;;;;1.58;0.60;;;;;;;26.57;38.78;94805.28;4969048;28;20105;-73
2021/05/21 05:07:03;;;;;;;1.15;0.50;;;;;;;26.70;39.01;94813.44;4949832;28;20037;-76
2021/05/21 05:09:29;;;;;;;0.70;0.50;;;;;;;26.76;38.91;94812.75;4952358;28;20027;-72
2021/05/21 05:11:55;;;;;;;0.82;0.50;;;;;;;26.53;38.91;94785.69;4967048;28;20022;-75
2021/05/21 05:14:21;;;;;;;0.85;0.80;;;;;;;26.71;38.87;94814.88;4969669;28;20828;-74
2021/05/21 05:16:46;;;;;;;0.75;0.57;;;;;;;26.69;38.34;94818.16;4940633;28;20031;-72
2021/05/21 05:19:12;;;;;;;0.80;0.43;;;;;;;26.66;38.72;94808.28;4957736;28;20041;-74
2021/05/21 05:21:39;;;;;;;1.45;0.60;;;;;;;26.87;38.47;94823.41;4950065;28;20038;-72
2021/05/21 05:24:05;;;;;;;0.63;0.50;;;;;;;26.83;38.21;94816.81;4961908;28;20030;-73
2021/05/21 05:26:31;;;;;;;0.75;0.45;;;;;;;26.97;38.24;94832.66;4959332;28;20113;-72
2021/05/21 05:28:57;;;;;;;0.40;0.40;;;;;;;26.99;38.18;94841.09;4957076;28;20027;-71
2021/05/21 05:31:22;;;;;;;0.90;0.60;;;;;;;26.95;40.12;94851.66;4960365;28;20014;-71
2021/05/21 05:33:48;;;;;;;1.23;0.52;;;;;;;26.97;39.71;94854.59;4978947;28;20041;-70
2021/05/21 05:36:14;;;;;;;0.95;0.50;;;;;;;27.06;39.19;94851.38;4975453;28;20044;-73
2021/05/21 05:38:39;;;;;;;0.77;0.47;;;;;;;27.03;39.72;94857.94;4962976;28;20038;-71
2021/05/21 05:41:05;;;;;;;0.63;0.50;;;;;;;26.96;40.19;94861.34;4956539;28;20034;-71
2021/05/21 05:43:30;;;;;;;0.75;0.40;;;;;;;26.98;39.09;94867.03;4976903;28;20022;-71
2021/05/21 05:45:56;;;;;;;0.47;0.40;;;;;;;26.93;39.33;94869.91;4972040;28;20042;-72
2021/05/21 05:48:21;;;;;;;1.02;0.75;;;;;;;26.91;39.62;94862.22;4958411;28;20057;-71
2021/05/21 05:50:47;;;;;;;1.05;0.88;;;;;;;26.81;39.21;94858.44;4975349;28;20018;-73
2021/05/21 05:53:13;;;;;;;1.13;0.50;;;;;;;26.94;38.90;94877.59;4965044;28;20023;-72
2021/05/21 05:55:40;;;;;;;1.15;0.50;;;;;;;26.81;38.92;94857.72;4978334;28;20022;-74
2021/05/21 05:58:06;;;;;;;0.98;0.43;;;;;;;26.97;38.78;94882.00;4975407;28;20421;-71
2021/05/21 06:00:31;;;;;;;0.60;0.50;;;;;;;27.11;38.28;94879.94;4970039;28;20027;-72
2021/05/21 06:03:07;;;;;;;1.83;0.60;;;;;;;27.06;38.48;94878.78;4964318;28;20451;-72
2021/05/21 06:05:33;;;;;;;0.80;0.55;;;;;;;26.95;38.57;94879.06;4961443;28;20039;-72
2021/05/21 06:08:01;;;;;;;0.70;0.50;;;;;;;27.05;38.33;94888.28;4962003;28;20506;-72
2021/05/21 06:10:26;;;;;;;1.00;0.50;;;;;;;27.02;38.75;94889.34;4962028;28;20023;-72
2021/05/21 06:12:57;;;;;;;0.60;0.50;;;;;;;26.99;38.50;94893.16;4956157;28;20073;-71
2021/05/21 06:15:23;;;;;;;1.27;0.70;;;;;;;27.03;38.58;94885.34;4963598;28;20021;-72
2021/05/21 06:17:52;;;;;;;2.15;0.60;;;;;;;27.05;38.29;94882.06;4955690;28;20451;-69
2021/05/21 06:20:17;;;;;;;1.10;0.40;;;;;;;27.17;38.35;94883.97;4958557;28;20034;-71
2021/05/21 06:22:43;;;;;;;1.65;0.80;;;;;;;27.06;38.34;94867.81;4951135;28;20039;-71
2021/05/21 06:25:09;;;;;;;9.35;0.60;;;;;;;27.26;38.86;94886.25;4958137;28;20125;-71
2021/05/21 06:27:35;;;;;;;2.80;0.57;;;;;;;27.18;38.49;94879.97;4959404;28;20027;-72
2021/05/21 06:30:02;;;;;;;4.05;1.00;;;;;;;27.15;38.22;94886.53;4946167;29;20513;-72
2021/05/21 06:32:27;;;;;;;1.30;0.60;;;;;;;27.04;38.16;94880.59;4955782;28;20019;-72
2021/05/21 06:34:53;;;;;;;4.55;0.52;;;;;;;26.90;38.61;94901.84;4953962;28;20026;-75
2021/05/21 06:37:18;;;;;;;2.03;0.57;;;;;;;26.74;38.30;94868.63;4958565;28;20024;-72
2021/05/21 06:39:44;;;;;;;3.35;0.73;;;;;;;26.84;38.95;94901.22;4946420;29;20019;-72
2021/05/21 06:42:10;;;;;;;1.95;0.73;;;;;;;26.79;38.65;94893.88;4955640;28;20181;-73
2021/05/21 06:44:35;;;;;;;1.52;0.55;;;;;;;26.57;38.38;94879.97;4959272;28;20509;-73
2021/05/21 06:47:01;;;;;;;1.92;0.60;;;;;;;26.65;38.22;94899.22;4948230;29;20027;-73
2021/05/21 06:49:26;;;;;;;1.65;0.50;;;;;;;26.48;38.92;94896.13;4964030;28;20482;-73
2021/05/21 06:51:52;;;;;;;2.15;0.50;;;;;;;26.33;38.87;94895.97;4968813;28;20521;-72
2021/05/21 06:54:18;;;;;;;1.08;0.50;;;;;;;26.39;39.27;94899.31;4935795;28;20505;-71
2021/05/21 06:56:44;;;;;;;1.35;0.70;;;;;;;26.18;38.94;94884.81;4951485;28;20114;-73
2021/05/21 06:59:09;;;;;;;1.90;0.68;;;;;;;26.23;39.57;94908.59;4968780;28;20459;-73
2021/05/21 07:01:35;;;;;;;1.92;0.70;;;;;;;26.10;39.63;94916.84;4968257;28;20615;-72
2021/05/21 07:04:00;;;;;;;1.42;0.70;;;;;;;26.08;39.56;94918.63;4951161;28;20050;-72
2021/05/21 07:06:25;;;;;;;1.58;0.60;;;;;;;26.03;39.29;94912.00;4968786;28;20038;-73
2021/05/21 07:08:51;;;;;;;1.65;0.60;;;;;;;25.97;39.24;94919.59;4968666;28;20035;-73
2021/05/21 07:11:17;;;;;;;1.25;0.70;;;;;;;25.86;39.59;94919.84;4969197;28;20031;-73
2021/05/21 07:13:42;;;;;;;1.48;0.50;;;;;;;25.82;39.72;94933.09;4951483;28;20557;-72
2021/05/21 07:16:08;;;;;;;2.00;0.68;;;;;;;25.75;39.58;94929.53;4968703;28;20308;-73
2021/05/21 07:18:33;;;;;;;1.20;0.50;;;;;;;25.72;40.13;94936.78;4967342;28;20473;-73
2021/05/21 07:21:02;;;;;;;1.08;0.70;;;;;;;25.71;39.63;94937.28;4968524;28;20031;-72
2021/05/21 07:23:28;;;;;;;2.35;0.88;;;;;;;25.60;39.84;94940.94;4968044;28;20030;-73
2021/05/21 07:25:53;;;;;;;3.55;0.80;;;;;;;25.58;39.90;94948.22;4968817;28;20031;-73
2021/05/21 07:28:19;;;;;;;2.13;0.90;;;;;;;25.53;40.48;94946.31;4967619;28;20035;-73
2021/05/21 07:30:45;;;;;;;1.75;0.70;;;;;;;25.53;40.03;94946.31;4968157;28;20446;-72
2021/05/21 07:33:11;;;;;;;2.33;0.93;;;;;;;25.45;40.51;94951.66;4967118;28;20039;-73
2021/05/21 07:35:37;;;;;;;1.45;0.70;;;;;;;25.45;40.18;94956.41;4967376;28;20086;-73
2021/05/21 07:38:02;;;;;;;2.33;0.90;;;;;;;25.43;40.71;94954.19;4971150;28;20038;-72
2021/05/21 07:40:28;;;;;;;1.60;0.75;;;;;;;25.42;40.79;94954.72;4972345;28;20029;-72
2021/05/21 07:42:53;;;;;;;2.22;0.80;;;;;;;25.39;41.01;94947.56;4972238;28;20022;-72
2021/05/21 07:45:19;;;;;;;1.75;0.60;;;;;;;25.27;40.86;94929.88;4954721;28;20053;-73
2021/05/21 07:47:44;;;;;;;2.30;0.88;;;;;;;25.32;40.59;94948.91;4970968;28;20422;-73
2021/05/21 07:50:10;;;;;;;2.85;1.13;;;;;;;25.34;40.70;94957.31;4970930;28;20038;-72
2021/05/21 07:52:36;;;;;;;1.23;0.50;;;;;;;25.32;41.05;94948.19;4972063;28;20084;-71
2021/05/21 07:55:03;;;;;;;1.25;0.75;;;;;;;25.32;40.87;94954.41;4954482;28;20482;-71
2021/05/21 07:57:29;;;;;;;1.88;0.60;;;;;;;25.31;40.72;94957.66;4971920;28;20026;-71
2021/05/21 07:59:54;;;;;;;1.98;0.70;;;;;;;25.29;40.69;94960.19;4972193;28;20085;-71
2021/05/21 08:02:20;;;;;;;1.27;0.80;;;;;;;25.29;40.76;94957.44;4971549;28;20023;-71
2021/05/21 08:04:45;;;;;;;0.90;0.50;;;;;;;25.18;41.58;94960.34;4971857;28;20042;-71
2021/05/21 08:07:11;;;;;;;1.83;0.70;;;;;;;25.21;41.51;94970.22;4971793;28;20043;-71
2021/05/21 08:09:39;;;;;;;1.80;0.65;;;;;;;25.22;41.22;94965.53;4971788;28;20027;-71
2021/05/21 08:12:05;;;;;;;1.40;0.80;;;;;;;25.22;41.45;94963.53;4970213;28;20113;-71
2021/05/21 08:14:30;;;;;;;1.38;0.70;;;;;;;25.20;41.18;94974.25;4971762;28;20407;-71
2021/05/21 08:16:56;;;;;;;2.08;0.85;;;;;;;25.19;41.36;94983.69;4971635;28;20077;-70
2021/05/21 08:19:21;;;;;;;2.10;0.63;;;;;;;24.99;41.13;94965.13;4971082;28;20034;-71
2021/05/21 08:21:47;;;;;;;1.20;0.75;;;;;;;25.17;40.97;94985.47;4953932;28;20027;-71
2021/05/21 08:24:12;;;;;;;1.80;0.80;;;;;;;25.14;40.61;94981.78;4954240;28;20364;-71
2021/05/21 08:26:38;;;;;;;0.95;0.70;;;;;;;25.12;41.30;94989.75;4971597;28;20035;-71
2021/05/21 08:29:03;;;;;;;0.75;0.55;;;;;;;25.10;40.82;95003.22;4971381;28;20045;-71
2021/05/21 08:31:29;;;;;;;1.85;0.85;;;;;;;25.13;40.92;94993.25;4953794;28;20027;-72
2021/05/21 08:33:54;;;;;;;1.60;0.77;;;;;;;25.12;41.03;94999.97;4971650;28;20022;-71
2021/05/21 08:36:23;;;;;;;1.60;0.80;;;;;;;25.10;41.07;94964.97;4953697;28;20026;-71
2021/05/21 08:38:49;;;;;;;1.50;1.00;;;;;;;25.09;40.89;95007.19;4970004;28;20030;-71
2021/05/21 08:41:17;;;;;;;1.15;0.70;;;;;;;25.09;41.41;95018.13;4954005;28;20038;-71
2021/05/21 08:43:47;;;;;;;2.00;0.80;;;;;;;25.08;41.12;95021.38;4970786;28;20054;-71
2021/05/21 08:46:13;;;;;;;1.92;0.80;;;;;;;25.03;41.04;95031.13;4955349;28;20045;-71
2021/05/21 08:48:40;;;;;;;1.77;0.70;;;;;;;25.04;41.49;95016.22;4969849;28;20471;-72
2021/05/21 08:51:06;;;;;;;1.75;0.70;;;;;;;25.01;41.28;95028.19;4970742;28;20089;-72
2021/05/21 08:53:32;;;;;;;1.55;0.85;;;;;;;24.99;40.95;95025.25;4937906;28;20026;-72
2021/05/21 08:55:58;;;;;;;1.80;0.65;;;;;;;24.96;41.44;95026.25;4971175;28;20037;-71
2021/05/21 08:58:24;;;;;;;1.52;0.90;;;;;;;24.93;41.55;95037.47;4970518;28;20022;-72
2021/05/21 09:00:49;;;;;;;1.33;0.90;;;;;;;24.91;41.29;95024.31;4971084;28;20414;-73
2021/05/21 09:03:19;;;;;;;1.35;0.70;;;;;;;24.91;41.40;95035.25;4970751;28;20439;-72
2021/05/21 09:08:43;;;;;;;1.40;0.80;;;;;;;24.90;41.17;95038.50;4954885;28;20052;-71
2021/05/21 09:11:27;;;;;;;2.15;1.00;;;;;;;24.88;41.41;95041.75;4971131;28;20035;-71
2021/05/21 09:13:57;;;;;;;1.27;0.85;;;;;;;24.85;41.11;95034.59;4970338;28;20030;-72
2021/05/21 09:16:24;;;;;;;;;;;;;;;24.84;40.99;95035.88;4971932;28;20093;-72
2021/05/21 09:18:59;;;;;;;1.33;0.88;;;;;;;24.84;41.10;95038.59;4954622;28;20014;-71
2021/05/21 09:21:25;;;;;;;1.13;0.75;;;;;;;24.82;41.35;95043.81;4970871;28;20054;-72
2021/05/21 09:24:04;;;;;;;0.95;0.70;;;;;;;24.83;40.95;95045.31;4953940;28;20053;-71
2021/05/21 09:26:46;;;;;;;1.80;0.80;;;;;;;24.82;41.50;95042.38;4970915;28;20093;-72
2021/05/21 09:29:13;;;;;;;1.20;0.80;;;;;;;24.82;41.29;95042.38;4970548;28;20027;-72
2021/05/21 09:31:46;;;;;;;1.40;0.90;;;;;;;24.60;41.12;95015.34;4953572;28;20027;-71
2021/05/21 09:34:11;;;;;;;1.60;1.13;;;;;;;24.72;41.35;95044.00;4953866;28;20027;-70
2021/05/21 09:36:38;;;;;;;1.48;1.00;;;;;;;24.82;41.01;95047.84;4953266;28;20081;-72
2021/05/21 09:39:11;;;;;;;1.85;0.90;;;;;;;24.75;41.64;95038.22;4970078;28;20042;-75
2021/05/21 09:41:48;;;;;;;1.60;1.02;;;;;;;24.80;40.70;95059.28;4953516;28;20015;-73
2021/05/21 09:44:14;;;;;;;4.28;1.27;;;;;;;24.78;41.73;95052.84;4974047;28;20038;-74
2021/05/21 09:46:41;;;;;;;8.80;1.73;;;;;;;24.80;42.00;95055.78;4972910;28;20081;-75
2021/05/21 09:49:26;;;;;;;5.40;1.45;;;;;;;24.84;41.91;95067.91;4968513;28;20034;-75
2021/05/21 09:51:55;;;;;;;5.05;1.27;;;;;;;24.79;41.88;95059.78;4978377;28;20045;-76
2021/05/21 09:54:21;;;;;;;4.60;1.45;;;;;;;24.68;41.84;95049.00;4977681;28;20430;-74
2021/05/21 09:56:59;;;;;;;5.75;1.17;;;;;;;24.68;41.52;95059.91;4973697;28;20031;-73
2021/05/21 09:59:41;;;;;;;4.10;1.02;;;;;;;24.83;41.64;95083.56;4947138;28;20117;-73
2021/05/21 10:02:27;;;;;;;6.47;1.10;;;;;;;24.68;41.48;95057.19;4977258;28;20114;-73
2021/05/21 10:04:52;;;;;;;7.55;1.58;;;;;;;24.93;41.03;95071.00;4954470;28;20513;-72
2021/05/21 10:07:18;;;;;;;6.43;1.52;;;;;;;25.03;41.34;95080.31;4954102;28;20023;-73
2021/05/21 10:09:44;;;;;;;4.15;1.45;;;;;;;24.95;41.11;95052.09;4974263;28;20426;-72
2021/05/21 10:12:10;;;;;;;2.30;1.33;;;;;;;25.18;41.46;95082.59;4975778;28;20030;-73
2021/05/21 10:14:35;;;;;;;4.57;1.08;;;;;;;25.22;40.86;95083.78;4974253;28;20414;-74
2021/05/21 10:17:01;;;;;;;4.07;1.30;;;;;;;25.07;40.99;95058.91;4972251;28;20030;-73
2021/05/21 10:19:27;;;;;;;3.17;1.27;;;;;;;25.44;41.09;95091.63;4958616;28;20030;-73
2021/05/21 10:21:54;;;;;;;4.63;1.30;;;;;;;25.48;40.91;95086.59;4970472;28;20157;-73
2021/05/21 10:24:20;;;;;;;3.42;1.35;;;;;;;25.71;40.59;95093.22;4978852;28;20525;-74
2021/05/21 10:26:49;;;;;;;3.08;1.20;;;;;;;25.79;40.78;95094.09;4955886;28;20513;-72
2021/05/21 10:29:19;;;;;;;3.93;1.30;;;;;;;25.93;40.94;95082.63;4956295;28;20058;-76
2021/05/21 10:31:44;;;;;;;4.03;1.40;;;;;;;25.95;40.00;95086.34;4954624;28;20106;-75
2021/05/21 10:34:18;;;;;;;2.65;1.10;;;;;;;26.06;40.29;95086.13;4944485;28;20477;-75
2021/05/21 10:36:43;;;;;;;3.03;1.35;;;;;;;25.99;39.98;95070.34;4946211;28;20026;-77
2021/05/21 10:39:10;;;;;;;3.80;1.40;;;;;;;26.17;40.29;95085.91;4979629;28;20125;-78
2021/05/21 10:41:51;;;;;;;3.15;1.25;;;;;;;26.30;39.94;95077.75;4971090;28;20018;-75
2021/05/21 10:44:24;;;;;;;4.75;1.38;;;;;;;26.40;39.43;95084.28;4974959;28;20550;-76
2021/05/21 10:46:50;;;;;;;2.88;1.15;;;;;;;26.50;39.72;95079.84;4974725;28;20023;-77
2021/05/21 10:49:34;;;;;;;4.43;1.30;;;;;;;26.59;38.58;95093.09;4974964;28;20490;-77
2021/05/21 10:52:03;;;;;;;3.42;1.42;;;;;;;26.63;38.52;95088.06;4891255;28;20083;-78
2021/05/21 10:54:35;;;;;;;4.55;1.23;;;;;;;26.73;38.32;95080.88;4980813;28;20046;-73
2021/05/21 10:57:23;;;;;;;3.00;1.27;;;;;;;26.73;38.15;95086.34;4980998;28;20027;-75
2021/05/21 10:59:52;;;;;;;1.95;1.08;;;;;;;26.77;38.29;95082.75;4979322;28;20031;-74
2021/05/21 11:02:24;;;;;;;2.53;1.30;;;;;;;26.84;38.18;95081.38;4991760;28;20022;-73
2021/05/21 11:04:51;;;;;;;3.70;1.50;;;;;;;26.89;38.17;95083.28;4989095;28;20056;-78
2021/05/21 11:07:38;;;;;;;2.63;1.30;;;;;;;26.70;38.04;95060.75;5001371;28;20037;-78
2021/05/21 11:10:05;;;;;;;2.50;1.27;;;;;;;26.81;37.83;95072.19;4983343;28;20030;-77
2021/05/21 11:12:52;;;;;;;2.75;1.30;;;;;;;26.97;37.70;95098.56;4995216;28;20022;-77
2021/05/21 11:15:38;;;;;;;2.65;1.33;;;;;;;26.99;37.65;95098.75;4990301;28;20525;-78
2021/05/21 11:18:15;;;;;;;1.92;1.38;;;;;;;26.99;37.72;95109.72;4964993;28;20065;-77
2021/05/21 11:21:09;;;;;;;3.03;1.45;;;;;;;27.07;37.23;95109.81;4985712;28;20034;-77
2021/05/21 11:23:46;;;;;;;2.28;1.10;;;;;;;27.09;37.29;95102.53;4970070;28;20038;-76
2021/05/21 11:26:16;;;;;;;3.28;1.30;;;;;;;27.08;37.49;95106.53;4966853;28;20038;-76
2021/05/21 11:28:54;;;;;;;1.60;1.10;;;;;;;27.11;37.30;95099.97;4973145;28;20121;-77
2021/05/21 11:31:30;;;;;;;3.55;1.40;;;;;;;27.07;37.41;95099.59;4967492;28;20054;-77
2021/05/21 11:33:58;;;;;;;1.98;1.10;;;;;;;27.18;37.28;95098.63;4967139;28;20030;-77
2021/05/21 11:36:24;;;;;;;4.57;1.45;;;;;;;27.22;37.34;95110.72;4957085;28;20109;-75